Time;durP1;ratioP1;P1;durP2;ratioP2;P2;SDS_P1;SDS_P2;PMS_P1;PMS_P2;Temp;Humidity;BMP_temperature;BMP_pressure;BME280_temperature;BME280_humidity;BME280_pressure;Samples;Min_cycle;Max_cycle;Signal;HPM_P1;HPM_P2
2022/03/20 00:00:35;;;;;;;38.95;24.45;;;;;;;4.62;100.00;97443.50;5046935;28;20462;-52
2022/03/20 00:03:07;;;;;;;36.42;23.02;;;;;;;4.63;100.00;97434.72;5047551;28;20545;-52
2022/03/20 00:05:38;;;;;;;32.42;19.55;;;;;;;4.64;100.00;97437.25;5048582;28;20068;-48
2022/03/20 00:08:09;;;;;;;31.27;19.48;;;;;;;4.69;100.00;97431.78;5046950;28;20061;-57
2022/03/20 00:10:38;;;;;;;36.05;20.77;;;;;;;4.57;100.00;97430.66;5045335;28;20052;-48
2022/03/20 00:13:08;;;;;;;39.95;22.27;;;;;;;4.79;100.00;97439.97;5049838;28;20056;-52
2022/03/20 00:15:40;;;;;;;38.80;22.15;;;;;;;4.63;100.00;97432.94;5050963;28;20316;-55
2022/03/20 00:18:10;;;;;;;32.58;21.50;;;;;;;4.54;100.00;97433.44;5049340;28;20064;-54
2022/03/20 00:20:42;;;;;;;37.55;20.30;;;;;;;4.64;100.00;97432.00;5051720;28;20076;-51
2022/03/20 00:23:12;;;;;;;38.97;24.33;;;;;;;4.46;100.00;97433.03;5048608;28;20438;-54
2022/03/20 00:25:42;;;;;;;34.13;19.83;;;;;;;4.50;100.00;97431.94;5050764;28;20069;-52
2022/03/20 00:28:11;;;;;;;33.45;19.38;;;;;;;4.42;100.00;97427.13;5049716;28;20475;-51
2022/03/20 00:30:39;;;;;;;37.63;20.38;;;;;;;4.61;100.00;97434.81;5049373;28;20064;-52
2022/03/20 00:33:09;;;;;;;37.55;22.25;;;;;;;4.62;100.00;97430.44;5051871;28;20065;-54
2022/03/20 00:35:38;;;;;;;29.35;18.20;;;;;;;4.37;100.00;97439.59;5052053;28;20061;-51
2022/03/20 00:38:07;;;;;;;38.22;23.05;;;;;;;4.62;100.00;97446.13;5050803;28;20106;-50
2022/03/20 00:40:36;;;;;;;36.50;22.58;;;;;;;4.58;100.00;97435.00;5050794;28;20064;-52
2022/03/20 00:43:05;;;;;;;36.47;21.60;;;;;;;4.55;100.00;97447.38;5050297;28;20088;-47
2022/03/20 00:45:34;;;;;;;31.35;19.58;;;;;;;4.31;100.00;97444.31;5050387;28;20605;-54
2022/03/20 00:48:02;;;;;;;33.05;20.17;;;;;;;4.40;100.00;97441.19;5050391;28;20076;-57
2022/03/20 00:50:33;;;;;;;31.30;19.15;;;;;;;4.46;100.00;97448.69;5051001;28;20517;-51
2022/03/20 00:53:01;;;;;;;;;;;;;;;4.38;100.00;97446.50;5049926;28;20048;-46
2022/03/20 00:55:29;;;;;;;36.20;22.13;;;;;;;4.48;100.00;97445.09;5068927;28;19952;-47
2022/03/20 00:57:58;;;;;;;37.67;22.52;;;;;;;4.33;100.00;97440.66;5050705;28;20065;-48
2022/03/20 01:00:26;;;;;;;38.22;22.17;;;;;;;4.28;100.00;97445.31;5050217;28;20273;-47
2022/03/20 01:02:54;;;;;;;36.10;20.65;;;;;;;4.41;100.00;97448.13;5048659;28;20693;-46
2022/03/20 01:05:23;;;;;;;40.08;23.52;;;;;;;4.47;100.00;97442.53;5050865;28;20088;-52
2022/03/20 01:07:52;;;;;;;39.40;24.60;;;;;;;4.38;100.00;97448.28;5049945;28;20057;-47
2022/03/20 01:10:21;;;;;;;35.13;20.85;;;;;;;4.33;100.00;97442.44;5050750;28;20056;-47
2022/03/20 01:12:49;;;;;;;39.55;20.83;;;;;;;4.39;100.00;97442.13;5050205;28;20068;-46
2022/03/20 01:15:18;;;;;;;35.22;22.35;;;;;;;4.41;100.00;97437.66;5050182;28;20096;-52
2022/03/20 01:17:50;;;;;;;40.00;22.65;;;;;;;4.46;100.00;97435.63;5047553;28;20041;-47
2022/03/20 01:20:19;;;;;;;39.63;21.13;;;;;;;4.33;100.00;97434.59;5038907;28;20459;-50
2022/03/20 01:22:47;;;;;;;38.00;23.27;;;;;;;4.22;100.00;97443.84;5047171;28;20487;-45
2022/03/20 01:25:21;;;;;;;41.58;25.48;;;;;;;4.34;100.00;97444.16;5047175;28;20083;-50
2022/03/20 01:27:50;;;;;;;41.13;23.43;;;;;;;4.39;100.00;97445.56;5048225;28;20049;-46
2022/03/20 01:30:18;;;;;;;36.97;22.60;;;;;;;4.21;100.00;97441.34;5049403;28;20483;-52
2022/03/20 01:32:46;;;;;;;38.80;23.35;;;;;;;4.20;100.00;97442.28;5049415;28;20077;-50
2022/03/20 01:35:14;;;;;;;40.92;23.30;;;;;;;4.16;100.00;97449.41;5050786;28;20471;-50
2022/03/20 01:37:42;;;;;;;40.60;23.38;;;;;;;4.28;100.00;97442.69;5048378;28;20076;-50
2022/03/20 01:40:11;;;;;;;40.45;21.80;;;;;;;4.27;100.00;97447.09;5049462;28;20072;-49
2022/03/20 01:42:41;;;;;;;40.85;22.23;;;;;;;4.19;100.00;97441.41;5050097;28;20041;-46
2022/03/20 01:45:17;;;;;;;36.63;22.02;;;;;;;4.18;100.00;97442.34;5049084;28;20080;-53
2022/03/20 01:47:47;;;;;;;39.60;23.25;;;;;;;4.13;100.00;97438.28;5049420;28;20085;-50
2022/03/20 01:50:16;;;;;;;35.38;20.13;;;;;;;4.05;100.00;97436.06;5046763;28;20089;-48
2022/03/20 01:52:45;;;;;;;39.28;24.25;;;;;;;4.09;100.00;97436.75;5049492;28;20037;-51
2022/03/20 01:55:15;;;;;;;42.83;22.67;;;;;;;4.17;100.00;97426.78;5048224;28;20086;-52
2022/03/20 01:57:45;;;;;;;36.60;20.25;;;;;;;4.04;100.00;97435.22;5047113;28;20060;-47
2022/03/20 02:00:16;;;;;;;41.45;23.63;;;;;;;4.13;100.00;97438.28;5048824;28;20176;-49
2022/03/20 02:02:45;;;;;;;39.85;23.83;;;;;;;3.97;100.00;97441.69;5048554;28;20531;-47
2022/03/20 02:05:14;;;;;;;38.95;23.40;;;;;;;4.13;100.00;97446.09;5028806;28;20452;-52
2022/03/20 02:07:44;;;;;;;33.47;20.83;;;;;;;3.98;100.00;97442.53;5044798;28;20076;-55
2022/03/20 02:10:12;;;;;;;39.63;24.42;;;;;;;4.16;100.00;97451.16;5049191;28;20068;-48
2022/03/20 02:12:42;;;;;;;41.58;24.35;;;;;;;4.11;100.00;97447.97;5049067;28;20075;-50
2022/03/20 02:15:13;;;;;;;41.97;23.50;;;;;;;4.20;100.00;97452.72;5048870;28;20148;-53
2022/03/20 02:17:41;;;;;;;38.95;23.80;;;;;;;4.04;100.00;97447.44;5049129;28;20144;-47
2022/03/20 02:20:11;;;;;;;43.75;26.23;;;;;;;4.03;100.00;97441.38;5042977;28;20067;-48
2022/03/20 02:22:41;;;;;;;36.40;22.73;;;;;;;4.00;100.00;97445.91;5044140;28;20064;-51
2022/03/20 02:25:14;;;;;;;36.80;22.92;;;;;;;3.95;100.00;97448.75;5044870;28;20061;-47
2022/03/20 02:27:44;;;;;;;37.28;23.65;;;;;;;4.02;100.00;97439.69;5047081;28;20029;-47
2022/03/20 02:30:16;;;;;;;41.08;26.17;;;;;;;3.84;100.00;97443.25;5048732;28;20057;-48
2022/03/20 02:32:46;;;;;;;39.45;24.35;;;;;;;3.83;100.00;97438.97;5049727;28;20081;-48
2022/03/20 02:35:17;;;;;;;38.63;24.50;;;;;;;3.84;100.00;97442.41;5040826;28;20064;-46
2022/03/20 02:37:49;;;;;;;38.50;22.40;;;;;;;3.83;100.00;97435.50;5046345;28;20057;-52
2022/03/20 02:40:19;;;;;;;43.55;25.05;;;;;;;3.94;100.00;97441.84;5045950;28;20076;-50
2022/03/20 02:42:49;;;;;;;38.30;23.90;;;;;;;3.90;100.00;97442.09;5043756;28;20064;-46
2022/03/20 02:45:20;;;;;;;38.08;21.48;;;;;;;3.87;100.00;97437.03;5046361;28;20087;-45
2022/03/20 02:47:50;;;;;;;41.53;22.88;;;;;;;3.98;100.00;97434.72;5048485;28;20092;-53
2022/03/20 02:50:20;;;;;;;41.55;22.30;;;;;;;3.91;100.00;97433.34;5048178;28;20068;-48
2022/03/20 02:52:51;;;;;;;36.40;22.92;;;;;;;3.84;100.00;97439.81;5048596;28;20071;-56
2022/03/20 02:55:21;;;;;;;38.30;21.77;;;;;;;3.84;100.00;97440.63;5047786;28;20069;-48
2022/03/20 02:57:50;;;;;;;37.40;22.07;;;;;;;3.75;100.00;97441.09;5048483;28;20060;-48
2022/03/20 03:00:21;;;;;;;36.25;21.70;;;;;;;3.76;100.00;97441.03;5042348;28;20072;-48
2022/03/20 03:02:51;;;;;;;42.25;24.55;;;;;;;3.76;100.00;97443.66;5047463;28;20044;-46
2022/03/20 03:05:21;;;;;;;37.38;22.80;;;;;;;3.67;100.00;97440.66;5048510;28;20083;-48
2022/03/20 03:10:59;;;;;;;40.10;22.85;;;;;;;3.80;100.00;97445.16;5042362;28;20061;-46
2022/03/20 03:13:31;;;;;;;40.22;24.52;;;;;;;3.63;100.00;97439.97;5044020;28;20440;-52
2022/03/20 03:16:00;;;;;;;42.67;24.83;;;;;;;3.74;100.00;97436.81;5045907;28;20040;-46
2022/03/20 03:18:29;;;;;;;40.10;22.43;;;;;;;3.52;100.00;97440.53;5047619;28;20057;-51
2022/03/20 03:20:57;;;;;;;38.40;20.63;;;;;;;3.54;100.00;97443.03;5045741;28;20080;-46
2022/03/20 03:23:27;;;;;;;36.42;23.20;;;;;;;3.55;100.00;97440.38;5047464;28;20087;-46
2022/03/20 03:25:57;;;;;;;39.42;23.70;;;;;;;3.51;100.00;97441.44;5044861;28;20060;-52
2022/03/20 03:28:33;;;;;;;38.33;21.90;;;;;;;3.56;100.00;97446.41;5047777;28;20069;-50
2022/03/20 03:31:03;;;;;;;36.53;22.88;;;;;;;3.56;100.00;97444.66;5047696;28;20486;-50
2022/03/20 03:33:32;;;;;;;40.78;23.48;;;;;;;3.59;100.00;97458.47;5063909;28;20525;-46
2022/03/20 03:36:01;;;;;;;43.20;26.00;;;;;;;3.60;100.00;97457.53;5045949;28;20072;-46
2022/03/20 03:38:34;;;;;;;43.55;26.15;;;;;;;3.59;100.00;97454.09;5048004;28;20086;-50
2022/03/20 03:41:03;;;;;;;38.83;22.23;;;;;;;3.67;100.00;97457.16;5047422;28;20181;-46
2022/03/20 03:43:32;;;;;;;41.38;23.90;;;;;;;3.65;100.00;97459.00;5047886;28;20151;-49
2022/03/20 03:46:00;;;;;;;38.83;23.45;;;;;;;3.64;100.00;97461.69;5047472;28;20065;-51
2022/03/20 03:48:28;;;;;;;41.30;23.13;;;;;;;3.67;100.00;97457.16;5062832;28;20496;-48
2022/03/20 03:51:02;;;;;;;39.63;22.52;;;;;;;3.50;100.00;97462.38;5047467;28;20076;-48
2022/03/20 03:53:32;;;;;;;39.38;24.75;;;;;;;3.46;100.00;97466.06;5061654;28;20079;-50
2022/03/20 03:56:00;;;;;;;41.87;25.37;;;;;;;3.49;100.00;97468.50;5047346;28;20462;-50
2022/03/20 03:58:29;;;;;;;42.80;25.70;;;;;;;3.50;100.00;97471.03;5047516;28;20069;-47
2022/03/20 04:00:57;;;;;;;42.80;23.92;;;;;;;3.60;100.00;97467.97;5047373;28;20065;-46
2022/03/20 04:03:26;;;;;;;40.78;23.17;;;;;;;3.60;100.00;97474.03;5046682;28;20064;-47
2022/03/20 04:05:54;;;;;;;41.95;24.67;;;;;;;3.55;100.00;97478.66;5046950;28;20546;-54
2022/03/20 04:08:23;;;;;;;38.45;22.35;;;;;;;3.38;100.00;97476.03;5046502;28;20558;-49
2022/03/20 04:10:53;;;;;;;36.10;21.55;;;;;;;3.36;100.00;97478.69;5046603;28;20108;-47
2022/03/20 04:13:22;;;;;;;40.05;21.95;;;;;;;3.39;100.00;97486.38;5049260;28;20068;-48
2022/03/20 04:15:50;;;;;;;43.20;23.52;;;;;;;3.31;100.00;97483.31;5047703;28;20057;-50
2022/03/20 04:18:18;;;;;;;41.10;23.80;;;;;;;3.37;100.00;97482.97;5046306;28;20068;-51
2022/03/20 04:20:51;;;;;;;40.08;23.75;;;;;;;3.47;100.00;97491.19;5041641;28;20377;-53
2022/03/20 04:26:07;;;;;;;41.42;23.58;;;;;;;3.31;100.00;97501.56;5044070;28;20073;-52
2022/03/20 04:28:35;;;;;;;43.17;23.60;;;;;;;3.29;100.00;97501.59;5046224;28;20080;-50
2022/03/20 04:31:03;;;;;;;43.50;24.05;;;;;;;3.22;100.00;97507.19;5047264;28;20103;-52
2022/03/20 04:33:32;;;;;;;40.20;23.73;;;;;;;3.17;100.00;97504.81;5048189;28;20139;-55
2022/03/20 04:36:01;;;;;;;39.72;23.58;;;;;;;3.29;100.00;97509.44;5048048;28;20095;-49
2022/03/20 04:38:29;;;;;;;43.70;26.13;;;;;;;3.12;100.00;97504.19;5047001;28;20092;-47
2022/03/20 04:40:57;;;;;;;43.85;23.15;;;;;;;3.04;100.00;97503.72;5046437;28;20060;-46
2022/03/20 04:43:27;;;;;;;41.22;23.45;;;;;;;3.11;100.00;97501.66;5046663;28;20064;-49
2022/03/20 04:45:55;;;;;;;36.00;21.08;;;;;;;3.06;100.00;97504.47;5043973;28;20590;-46
2022/03/20 04:59:28;;;;;;;41.50;23.85;;;;;;;3.04;100.00;97512.38;5048709;28;20675;-46
2022/03/20 05:01:59;;;;;;;44.13;25.75;;;;;;;2.90;100.00;97513.94;5046077;28;20469;-48
2022/03/20 05:04:27;;;;;;;42.17;26.45;;;;;;;2.91;100.00;97515.63;5049415;28;20064;-52
2022/03/20 05:06:56;;;;;;;44.90;25.67;;;;;;;2.89;100.00;97523.53;5050872;28;20143;-55
2022/03/20 05:14:58;;;;;;;43.78;25.83;;;;;;;2.96;100.00;97526.66;5050202;28;20471;-49
2022/03/20 05:17:28;;;;;;;37.45;23.45;;;;;;;2.92;100.00;97531.16;5050068;28;20077;-50
2022/03/20 05:19:56;;;;;;;41.55;22.58;;;;;;;2.88;100.00;97536.59;5050818;28;20450;-48
2022/03/20 05:22:25;;;;;;;43.47;24.42;;;;;;;2.85;100.00;97532.38;5047506;28;20068;-51
2022/03/20 05:24:53;;;;;;;42.90;24.35;;;;;;;3.08;100.00;97537.34;5047032;28;20067;-48
2022/03/20 05:27:21;;;;;;;40.60;24.42;;;;;;;2.96;100.00;97540.56;5044475;28;20083;-50
2022/03/20 05:29:49;;;;;;;36.35;21.33;;;;;;;2.91;100.00;97533.84;5046546;28;20530;-53
2022/03/20 05:32:20;;;;;;;41.58;25.48;;;;;;;3.17;100.00;97530.88;5048738;28;20132;-49
2022/03/20 05:34:48;;;;;;;35.90;21.92;;;;;;;3.01;100.00;97533.34;5042990;28;20069;-47
2022/03/20 05:37:17;;;;;;;41.08;25.50;;;;;;;3.15;100.00;97535.31;5043692;28;20084;-52
2022/03/20 05:39:46;;;;;;;45.05;27.35;;;;;;;3.00;100.00;97536.03;5044450;28;20065;-45
2022/03/20 05:42:14;;;;;;;41.63;23.73;;;;;;;3.11;100.00;97538.97;5044159;28;20545;-46
2022/03/20 05:44:46;;;;;;;38.22;21.60;;;;;;;3.13;100.00;97537.13;5044582;28;20073;-45
2022/03/20 05:47:15;;;;;;;38.35;22.40;;;;;;;3.18;100.00;97543.00;5043055;28;20463;-46
2022/03/20 05:49:46;;;;;;;39.22;23.67;;;;;;;3.25;100.00;97547.00;5045328;28;20172;-51
2022/03/20 05:52:15;;;;;;;37.00;22.08;;;;;;;3.26;100.00;97550.44;5045013;28;20063;-53
2022/03/20 05:54:43;;;;;;;41.17;21.90;;;;;;;3.44;100.00;97551.31;5044465;28;20067;-48
2022/03/20 05:59:58;;;;;;;42.95;23.88;;;;;;;3.40;100.00;97558.44;5044530;28;20068;-46
2022/03/20 06:02:26;;;;;;;42.03;23.52;;;;;;;3.50;100.00;97564.91;5047165;28;20077;-52
2022/03/20 06:04:56;;;;;;;39.72;23.33;;;;;;;3.48;100.00;97560.72;5047693;28;20090;-49
2022/03/20 06:07:24;;;;;;;43.33;24.35;;;;;;;3.51;100.00;97563.16;5044312;28;20128;-54
2022/03/20 06:09:52;;;;;;;41.88;23.48;;;;;;;3.48;100.00;97560.72;5045056;28;20060;-46
2022/03/20 06:12:20;;;;;;;37.83;22.92;;;;;;;3.57;100.00;97555.03;5045197;28;20077;-46
2022/03/20 06:14:49;;;;;;;38.72;22.20;;;;;;;3.52;100.00;97562.25;5050781;28;20079;-48
2022/03/20 06:17:17;;;;;;;40.28;24.10;;;;;;;3.62;100.00;97566.09;5045597;28;20092;-48
2022/03/20 06:19:46;;;;;;;46.65;26.13;;;;;;;3.77;100.00;97572.31;5044901;28;20069;-50
2022/03/20 06:22:16;;;;;;;42.28;24.70;;;;;;;3.76;100.00;97570.63;5044007;28;20056;-45
2022/03/20 06:24:44;;;;;;;42.95;24.92;;;;;;;3.97;100.00;97568.72;5046133;28;20068;-48
2022/03/20 06:27:12;;;;;;;43.90;26.40;;;;;;;3.69;100.00;97566.66;5041905;28;20084;-45
2022/03/20 06:29:41;;;;;;;41.47;25.50;;;;;;;3.97;100.00;97569.56;5044837;28;20076;-48
2022/03/20 06:32:10;;;;;;;41.38;25.83;;;;;;;3.98;100.00;97565.19;5043687;28;20076;-47
2022/03/20 06:34:39;;;;;;;39.38;22.85;;;;;;;4.35;100.00;97579.00;5044986;28;20084;-53
2022/03/20 06:37:07;;;;;;;36.47;22.17;;;;;;;4.42;100.00;97583.00;5041644;28;20064;-54
2022/03/20 06:39:37;;;;;;;40.03;23.38;;;;;;;4.73;100.00;97583.06;5046075;28;20069;-50
2022/03/20 06:42:07;;;;;;;39.55;23.40;;;;;;;4.43;100.00;97585.50;5041754;28;20071;-47
2022/03/20 06:44:35;;;;;;;39.97;23.42;;;;;;;4.81;100.00;97593.13;5046549;28;20145;-47
2022/03/20 06:47:03;;;;;;;32.80;20.55;;;;;;;5.02;100.00;97592.91;5042812;28;20075;-50
2022/03/20 06:49:32;;;;;;;39.20;23.52;;;;;;;5.26;100.00;97598.56;5041717;28;20076;-47
2022/03/20 06:52:00;;;;;;;37.10;23.17;;;;;;;4.94;100.00;97598.53;5044668;28;20455;-53
2022/03/20 06:54:29;;;;;;;37.05;23.25;;;;;;;5.19;100.00;97603.28;5044842;28;20072;-56
2022/03/20 06:56:58;;;;;;;37.42;23.25;;;;;;;5.28;100.00;97594.13;5043367;28;20084;-60
2022/03/20 06:59:27;;;;;;;35.05;21.80;;;;;;;5.02;100.00;97608.59;5047604;28;20503;-60
2022/03/20 07:01:55;;;;;;;33.78;19.90;;;;;;;5.21;100.00;97599.66;5045354;28;20068;-60
2022/03/20 07:04:23;;;;;;;36.22;21.45;;;;;;;5.61;100.00;97597.50;5048271;28;20068;-59
2022/03/20 07:06:51;;;;;;;37.22;22.65;;;;;;;5.75;100.00;97596.72;5046807;28;20064;-58
2022/03/20 07:09:20;;;;;;;35.78;22.27;;;;;;;5.33;100.00;97603.38;5045764;28;20069;-59
2022/03/20 07:11:48;;;;;;;33.88;22.15;;;;;;;5.36;100.00;97605.81;5047924;28;20077;-62
2022/03/20 07:14:19;;;;;;;33.92;20.77;;;;;;;5.50;100.00;97601.63;5048360;28;20072;-62
2022/03/20 07:16:47;;;;;;;;;;;;;;;5.64;100.00;97605.16;5046736;28;20069;-63
2022/03/20 07:19:18;;;;;;;36.92;23.75;;;;;;;5.74;100.00;97605.47;5045945;28;19959;-60
2022/03/20 07:21:46;;;;;;;36.17;23.30;;;;;;;5.84;100.00;97605.81;5044491;28;20064;-62
2022/03/20 07:24:14;;;;;;;35.15;23.75;;;;;;;5.93;100.00;97600.09;5048467;28;20087;-60
2022/03/20 07:29:33;;;;;;;32.75;22.50;;;;;;;6.30;100.00;97613.69;5049044;28;21333;-60
2022/03/20 07:32:04;;;;;;;34.53;22.20;;;;;;;6.56;100.00;97610.34;5049744;28;20661;-60
2022/03/20 07:34:33;;;;;;;34.95;23.65;;;;;;;6.41;100.00;97617.34;5047551;28;20057;-60
2022/03/20 07:37:01;;;;;;;27.35;16.10;;;;;;;6.31;100.00;97608.34;5047510;28;20099;-56
2022/03/20 07:39:29;;;;;;;27.98;18.25;;;;;;;6.41;100.00;97611.25;5048054;28;20581;-58
2022/03/20 07:41:57;;;;;;;32.38;20.63;;;;;;;6.54;99.32;97614.84;5047741;28;20081;-59
2022/03/20 07:44:26;;;;;;;29.67;20.52;;;;;;;6.83;99.81;97613.09;5047030;28;20077;-62
2022/03/20 07:46:56;;;;;;;31.33;21.08;;;;;;;6.86;100.00;97618.16;5043459;28;20428;-56
2022/03/20 07:49:26;;;;;;;33.00;23.92;;;;;;;6.65;96.16;97620.28;5046474;28;20072;-60
2022/03/20 07:51:57;;;;;;;27.27;18.35;;;;;;;6.80;96.63;97618.50;5046234;28;20064;-61
2022/03/20 07:54:25;;;;;;;28.27;17.08;;;;;;;6.76;95.93;97614.41;5047491;28;20069;-62
2022/03/20 07:56:54;;;;;;;30.63;21.35;;;;;;;7.12;93.39;97605.19;5047585;28;20091;-59
2022/03/20 07:59:22;;;;;;;30.02;20.52;;;;;;;7.57;87.48;97611.13;5046957;28;20081;-61
2022/03/20 08:01:50;;;;;;;25.65;17.33;;;;;;;7.40;84.26;97613.97;5047698;28;20069;-61
2022/03/20 08:04:21;;;;;;;26.48;17.50;;;;;;;7.40;82.82;97616.59;5046573;28;20068;-62
2022/03/20 08:06:49;;;;;;;;;;;;;;;7.41;84.83;97615.69;5041168;28;20056;-60
2022/03/20 08:09:18;;;;;;;27.45;18.42;;;;;;;7.37;86.97;97621.13;5044845;28;19963;-61
2022/03/20 08:11:46;;;;;;;26.58;16.90;;;;;;;7.57;85.97;97619.00;5047439;28;20080;-60
2022/03/20 08:14:14;;;;;;;28.80;16.60;;;;;;;7.38;81.43;97624.59;5046537;28;20484;-61
2022/03/20 08:16:43;;;;;;;27.88;17.38;;;;;;;7.75;81.85;97627.50;5046404;28;20470;-61
2022/03/20 08:19:15;;;;;;;28.85;18.73;;;;;;;8.15;77.98;97630.16;5045606;28;20068;-62
2022/03/20 08:21:47;;;;;;;26.25;17.85;;;;;;;8.03;78.85;97627.41;5045159;28;20065;-61
2022/03/20 08:24:15;;;;;;;28.00;18.63;;;;;;;8.11;75.43;97626.91;5046017;28;20037;-59
2022/03/20 08:26:44;;;;;;;31.17;18.55;;;;;;;8.15;71.75;97627.53;5047145;28;20072;-60
2022/03/20 08:29:13;;;;;;;25.95;17.58;;;;;;;8.65;68.63;97629.47;5045755;28;20348;-58
2022/03/20 08:31:44;;;;;;;28.43;19.47;;;;;;;8.92;69.81;97631.16;5045870;28;20099;-61
2022/03/20 08:34:13;;;;;;;23.38;15.90;;;;;;;8.52;68.72;97625.97;5050800;28;20080;-60
2022/03/20 08:36:42;;;;;;;25.75;18.25;;;;;;;8.76;67.60;97629.56;5050283;28;20065;-60
2022/03/20 08:39:12;;;;;;;25.70;17.88;;;;;;;8.81;62.94;97629.28;5049443;28;20690;-59
2022/03/20 08:41:43;;;;;;;24.73;17.50;;;;;;;8.62;64.00;97629.66;5050821;28;20493;-59
2022/03/20 08:44:11;;;;;;;26.48;17.67;;;;;;;9.34;61.65;97627.31;5049782;28;20489;-62
2022/03/20 08:46:39;;;;;;;25.60;19.13;;;;;;;9.16;60.47;97624.19;5050014;28;20079;-58
2022/03/20 08:49:09;;;;;;;24.58;17.33;;;;;;;8.84;63.05;97621.16;5049358;28;20069;-61
2022/03/20 08:51:39;;;;;;;23.15;16.05;;;;;;;9.06;62.06;97624.94;5048473;28;20072;-59
2022/03/20 08:54:08;;;;;;;26.02;18.90;;;;;;;9.45;61.89;97622.13;5050477;28;20061;-63
2022/03/20 08:56:38;;;;;;;25.35;18.52;;;;;;;9.30;61.20;97625.03;5048048;28;20081;-61
2022/03/20 08:59:07;;;;;;;25.23;16.93;;;;;;;9.56;59.12;97623.16;5050733;28;20064;-59
2022/03/20 09:01:35;;;;;;;26.33;17.80;;;;;;;9.70;57.89;97618.59;5049704;28;20073;-58
2022/03/20 09:04:04;;;;;;;29.88;19.27;;;;;;;9.71;57.42;97614.19;5050973;28;20699;-61
2022/03/20 09:06:32;;;;;;;27.10;17.05;;;;;;;9.89;58.54;97617.25;5050439;28;20514;-59
2022/03/20 09:09:01;;;;;;;26.17;18.48;;;;;;;9.76;57.95;97614.66;5050601;28;20472;-61
2022/03/20 09:11:29;;;;;;;24.95;17.45;;;;;;;10.14;56.02;97624.19;5049598;28;20527;-61
2022/03/20 09:13:58;;;;;;;23.75;17.33;;;;;;;9.83;55.35;97621.16;5049607;28;20132;-59
2022/03/20 09:19:12;;;;;;;31.50;21.30;;;;;;;10.29;54.73;97612.56;5042399;28;20072;-58
2022/03/20 09:21:41;;;;;;;28.50;17.10;;;;;;;10.35;54.04;97614.72;5045857;28;20065;-61
2022/03/20 09:24:09;;;;;;;26.50;18.30;;;;;;;10.75;52.32;97610.88;5051343;28;20075;-62
2022/03/20 09:26:37;;;;;;;28.63;18.17;;;;;;;10.69;53.39;97613.03;5051756;28;20072;-61
2022/03/20 09:29:07;;;;;;;25.55;16.60;;;;;;;10.56;53.21;97619.34;5050569;28;20065;-62
2022/03/20 09:31:35;;;;;;;26.10;18.58;;;;;;;10.87;51.31;97624.00;5051294;28;20475;-62
2022/03/20 09:34:10;;;;;;;22.73;16.05;;;;;;;10.89;51.69;97619.41;5052713;28;20522;-62
2022/03/20 09:36:38;;;;;;;25.38;17.08;;;;;;;10.82;51.32;97625.28;5050982;28;20052;-62
2022/03/20 09:39:06;;;;;;;25.75;17.85;;;;;;;10.96;51.18;97630.34;5050888;28;20067;-61
2022/03/20 09:41:39;;;;;;;22.88;16.10;;;;;;;10.93;50.56;97634.06;5051211;28;20107;-61
2022/03/20 09:44:10;;;;;;;25.83;16.60;;;;;;;10.89;49.92;97637.06;5049069;28;20068;-64
2022/03/20 09:46:38;;;;;;;23.65;17.08;;;;;;;11.21;48.97;97639.00;5050591;28;20502;-62
2022/03/20 09:49:07;;;;;;;25.73;17.65;;;;;;;11.27;48.71;97636.72;5050605;28;20083;-61
2022/03/20 09:51:35;;;;;;;24.48;17.02;;;;;;;11.37;48.71;97635.03;5049868;28;20091;-55
2022/03/20 09:54:04;;;;;;;25.17;17.35;;;;;;;11.56;49.04;97628.28;5050767;28;20096;-61
2022/03/20 09:56:33;;;;;;;25.23;17.60;;;;;;;11.90;48.39;97623.81;5050703;28;20083;-59
2022/03/20 09:59:02;;;;;;;24.23;15.90;;;;;;;11.37;48.08;97623.66;5050236;28;20111;-59
2022/03/20 10:01:33;;;;;;;25.23;17.33;;;;;;;11.73;47.35;97622.50;5050328;28;20065;-60
2022/03/20 10:04:10;;;;;;;26.42;16.75;;;;;;;12.19;46.63;97617.97;5044456;28;20069;-61
2022/03/20 10:06:38;;;;;;;25.20;16.42;;;;;;;11.86;47.66;97614.47;5050545;28;20063;-62
2022/03/20 10:09:09;;;;;;;27.45;18.15;;;;;;;11.88;47.53;97613.38;5050237;28;20056;-61
2022/03/20 10:11:40;;;;;;;22.50;16.83;;;;;;;12.35;46.18;97616.59;5050732;28;20095;-60
2022/03/20 10:14:11;;;;;;;24.10;16.88;;;;;;;12.51;45.05;97615.31;5050090;28;20102;-61
2022/03/20 10:16:42;;;;;;;23.73;17.38;;;;;;;11.95;45.94;97618.19;5049987;28;20073;-58
2022/03/20 10:19:27;;;;;;;23.95;17.00;;;;;;;12.66;45.67;97618.47;5049951;28;20073;-61
2022/03/20 10:21:57;;;;;;;24.58;17.35;;;;;;;12.31;45.39;97615.13;5044584;28;20067;-63
2022/03/20 10:24:27;;;;;;;23.88;17.17;;;;;;;12.25;45.50;97613.03;5049691;28;20088;-60
2022/03/20 10:27:06;;;;;;;22.00;16.00;;;;;;;12.75;45.15;97612.41;5049706;28;20084;-61
2022/03/20 10:29:35;;;;;;;23.45;16.42;;;;;;;13.03;44.71;97617.00;5049829;28;20091;-61
2022/03/20 10:32:08;;;;;;;22.75;16.75;;;;;;;12.80;43.33;97620.78;5049709;28;20064;-61
2022/03/20 10:34:55;;;;;;;24.30;17.20;;;;;;;12.97;44.42;97619.34;5050692;28;20524;-60
2022/03/20 10:37:48;;;;;;;23.52;16.73;;;;;;;12.77;43.79;97621.06;5049263;28;20103;-62
2022/03/20 10:40:19;;;;;;;22.23;16.27;;;;;;;12.78;44.14;97626.22;5047971;28;20479;-59
2022/03/20 10:43:08;;;;;;;25.52;17.65;;;;;;;12.34;43.59;97627.28;5049684;28;20455;-61
2022/03/20 10:46:00;;;;;;;25.88;17.00;;;;;;;13.39;43.23;97619.31;5048946;28;20064;-60
2022/03/20 10:48:37;;;;;;;25.95;16.35;;;;;;;13.00;43.88;97629.69;5049613;28;20061;-62
2022/03/20 10:51:07;;;;;;;23.58;15.88;;;;;;;13.04;43.12;97626.66;5049321;28;20076;-63
2022/03/20 10:53:36;;;;;;;22.40;16.20;;;;;;;13.10;43.02;97624.44;5049492;28;20080;-62
2022/03/20 10:56:06;;;;;;;22.20;16.08;;;;;;;13.10;42.60;97622.63;5049041;28;20537;-62
2022/03/20 10:58:38;;;;;;;21.42;15.15;;;;;;;13.35;42.72;97636.44;5049406;28;20069;-62
2022/03/20 11:01:07;;;;;;;21.15;14.75;;;;;;;13.04;42.09;97623.16;5046779;28;20073;-62
2022/03/20 11:03:38;;;;;;;21.63;13.38;;;;;;;12.62;42.50;97628.47;5049331;28;20072;-62
2022/03/20 11:06:07;;;;;;;22.27;15.60;;;;;;;13.22;42.86;97621.59;5049302;28;20071;-62
2022/03/20 11:08:37;;;;;;;23.65;17.20;;;;;;;13.71;41.14;97627.09;5049407;28;20535;-62
2022/03/20 11:11:06;;;;;;;21.88;15.05;;;;;;;13.30;41.76;97623.59;5049051;28;20143;-62
2022/03/20 11:13:35;;;;;;;21.60;15.10;;;;;;;13.14;41.13;97612.59;5049362;28;20068;-61
2022/03/20 11:16:05;;;;;;;22.35;15.23;;;;;;;12.94;41.88;97622.25;5049283;28;20489;-62
2022/03/20 11:18:38;;;;;;;24.63;16.02;;;;;;;13.08;42.13;97627.22;5046107;28;20064;-62
2022/03/20 11:21:06;;;;;;;22.02;15.77;;;;;;;13.05;41.84;97622.19;5048524;28;20466;-63
2022/03/20 11:23:36;;;;;;;24.88;16.75;;;;;;;13.42;42.28;97616.38;5049621;28;20478;-61
2022/03/20 11:26:05;;;;;;;24.00;16.35;;;;;;;13.27;42.16;97622.03;5042410;28;20069;-64
2022/03/20 11:28:39;;;;;;;24.20;16.23;;;;;;;13.16;42.35;97616.81;5042751;28;20080;-60
2022/03/20 11:31:07;;;;;;;22.20;15.75;;;;;;;13.60;41.48;97606.00;5048503;28;20065;-62
2022/03/20 11:33:37;;;;;;;21.77;16.33;;;;;;;13.49;40.73;97605.13;5048957;28;20079;-62
2022/03/20 11:36:06;;;;;;;22.83;16.05;;;;;;;13.68;41.23;97611.44;5048716;28;20065;-62
2022/03/20 11:38:36;;;;;;;25.30;16.27;;;;;;;13.63;41.15;97608.38;5049570;28;20472;-63
2022/03/20 11:41:06;;;;;;;22.42;16.48;;;;;;;13.32;40.76;97610.19;5048307;28;20080;-63
2022/03/20 11:43:35;;;;;;;25.15;17.25;;;;;;;13.41;41.60;97614.72;5048684;28;20571;-62
2022/03/20 11:46:33;;;;;;;20.98;15.73;;;;;;;13.42;41.08;97598.69;5048681;28;20075;-63
2022/03/20 11:49:22;;;;;;;22.42;16.85;;;;;;;13.67;41.15;97600.00;5002858;28;20479;-60
2022/03/20 11:51:55;;;;;;;21.20;15.05;;;;;;;13.63;40.41;97605.72;5048373;28;20444;-61
2022/03/20 11:54:30;;;;;;;19.08;14.18;;;;;;;13.46;40.19;97593.97;5048780;28;20068;-60
2022/03/20 11:57:00;;;;;;;23.80;16.23;;;;;;;13.60;40.85;97598.88;5048637;28;20535;-61
2022/03/20 11:59:46;;;;;;;21.48;15.25;;;;;;;13.59;39.65;97599.84;5048756;28;20525;-62
2022/03/20 12:02:20;;;;;;;21.42;15.20;;;;;;;13.56;38.99;97594.84;5048468;28;20295;-62